Time;durP1;ratioP1;P1;durP2;ratioP2;P2;SDS_P1;SDS_P2;PMS_P1;PMS_P2;Temp;Humidity;BMP_temperature;BMP_pressure;BME280_temperature;BME280_humidity;BME280_pressure;Samples;Min_cycle;Max_cycle;Signal;HPM_P1;HPM_P2
2021/08/05 00:00:57;;;;;;;4.87;2.47;;;;;;;;;;5034090;28;20469;-63
2021/08/05 00:03:23;;;;;;;3.00;2.50;;;;;;;;;;5033367;28;20427;-63
2021/08/05 00:05:49;;;;;;;6.13;2.70;;;;;;;;;;5035269;28;20448;-63
2021/08/05 00:08:15;;;;;;;4.30;2.60;;;;;;;;;;5034276;28;20446;-64
2021/08/05 00:10:41;;;;;;;3.70;2.13;;;;;;;;;;5035709;28;20478;-63
2021/08/05 00:13:08;;;;;;;5.73;2.70;;;;;;;;;;5033523;28;20427;-62
2021/08/05 00:15:34;;;;;;;5.97;3.13;;;;;;;;;;5035170;28;20404;-63
2021/08/05 00:18:00;;;;;;;3.20;2.70;;;;;;;;;;5022301;28;20460;-62
2021/08/05 00:20:26;;;;;;;4.63;3.10;;;;;;;;;;5015549;28;20911;-63
2021/08/05 00:22:52;;;;;;;4.67;3.30;;;;;;;;;;5026489;28;20503;-63
2021/08/05 00:25:18;;;;;;;5.23;4.00;;;;;;;;;;5035409;28;20783;-63
2021/08/05 00:27:44;;;;;;;9.07;3.73;;;;;;;;;;5028692;28;20467;-63
2021/08/05 00:30:10;;;;;;;8.63;3.37;;;;;;;;;;5015681;28;20408;-63
2021/08/05 00:32:37;;;;;;;5.40;3.37;;;;;;;;;;5015650;28;20515;-63
2021/08/05 00:35:03;;;;;;;5.37;3.83;;;;;;;;;;5018758;28;20423;-63
2021/08/05 00:37:29;;;;;;;4.23;2.73;;;;;;;;;;5022787;28;20462;-63
2021/08/05 00:39:55;;;;;;;5.20;4.00;;;;;;;;;;5035286;28;20407;-64
2021/08/05 00:42:21;;;;;;;4.87;3.13;;;;;;;;;;5032611;28;20438;-63
2021/08/05 00:44:47;;;;;;;3.80;2.37;;;;;;;;;;5035086;28;20403;-63
2021/08/05 00:47:13;;;;;;;4.63;2.53;;;;;;;;;;5033495;28;20462;-63
2021/08/05 00:49:39;;;;;;;3.77;2.70;;;;;;;;;;5035439;28;20414;-63
2021/08/05 00:52:06;;;;;;;4.70;2.43;;;;;;;;;;5033781;28;20425;-63
2021/08/05 00:54:32;;;;;;;2.43;1.57;;;;;;;;;;5034522;28;20425;-64
2021/08/05 00:56:58;;;;;;;3.50;2.30;;;;;;;;;;5031943;28;20938;-63
2021/08/05 00:59:24;;;;;;;2.60;2.03;;;;;;;;;;5034711;28;20903;-63
2021/08/05 01:01:54;;;;;;;3.20;2.17;;;;;;;;;;5034112;28;20943;-63
2021/08/05 01:04:20;;;;;;;3.37;2.17;;;;;;;;;;5034798;28;20403;-63
2021/08/05 01:07:05;;;;;;;3.03;1.90;;;;;;;;;;5034043;28;20533;-62
2021/08/05 01:09:50;;;;;;;4.30;2.27;;;;;;;;;;5015341;28;20838;-64
2021/08/05 01:12:23;;;;;;;3.23;2.10;;;;;;;;;;5018856;28;20426;-63
2021/08/05 01:14:54;;;;;;;3.67;2.17;;;;;;;;;;5034711;28;20470;-64
2021/08/05 01:17:22;;;;;;;3.70;2.60;;;;;;;;;;5033388;28;20426;-63
2021/08/05 01:19:59;;;;;;;3.40;2.07;;;;;;;;;;5034761;28;20457;-63
2021/08/05 01:22:28;;;;;;;3.17;1.90;;;;;;;;;;5033948;28;20423;-63
2021/08/05 01:25:14;;;;;;;2.90;1.83;;;;;;;;;;5029734;28;20427;-62
2021/08/05 01:27:40;;;;;;;3.47;2.20;;;;;;;;;;5014076;28;20480;-62
2021/08/05 01:30:07;;;;;;;2.67;2.17;;;;;;;;;;5033400;28;20411;-62
2021/08/05 01:32:35;;;;;;;2.97;2.20;;;;;;;;;;5033973;28;20407;-62
2021/08/05 01:35:02;;;;;;;4.33;2.27;;;;;;;;;;5034521;28;20410;-62
2021/08/05 01:37:28;;;;;;;3.13;2.20;;;;;;;;;;5033622;28;20415;-62
2021/08/05 01:39:54;;;;;;;4.40;2.40;;;;;;;;;;5034283;28;20441;-64
2021/08/05 01:42:21;;;;;;;2.93;1.90;;;;;;;;;;5034647;28;20395;-64
2021/08/05 01:44:49;;;;;;;3.30;2.80;;;;;;;;;;5033805;28;20477;-64
2021/08/05 01:47:16;;;;;;;4.63;2.60;;;;;;;;;;5034663;28;20458;-64
2021/08/05 01:49:42;;;;;;;3.57;2.50;;;;;;;;;;5016361;28;20438;-63
2021/08/05 01:52:09;;;;;;;4.20;2.57;;;;;;;;;;5015237;28;20491;-63
2021/08/05 01:54:35;;;;;;;4.80;3.10;;;;;;;;;;5030497;28;20497;-63
2021/08/05 01:57:03;;;;;;;4.33;3.17;;;;;;;;;;5020054;28;20538;-65
2021/08/05 01:59:29;;;;;;;3.03;1.53;;;;;;;;;;5014389;28;20447;-63
2021/08/05 02:01:55;;;;;;;2.17;1.37;;;;;;;;;;5030205;28;20434;-63
2021/08/05 02:04:39;;;;;;;2.27;1.10;;;;;;;;;;5031989;28;20438;-63
2021/08/05 02:07:10;;;;;;;2.10;1.33;;;;;;;;;;5037330;28;20456;-63
2021/08/05 02:09:41;;;;;;;2.10;1.37;;;;;;;;;;5036371;28;20458;-63
2021/08/05 02:12:07;;;;;;;1.70;1.10;;;;;;;;;;5037634;28;20397;-63
2021/08/05 02:14:35;;;;;;;1.70;1.17;;;;;;;;;;5036565;28;20855;-63
2021/08/05 02:17:02;;;;;;;2.03;1.27;;;;;;;;;;5037332;28;20421;-63
2021/08/05 02:19:29;;;;;;;1.70;1.20;;;;;;;;;;5021746;28;20461;-63
2021/08/05 02:21:55;;;;;;;2.03;1.10;;;;;;;;;;5017222;28;20810;-63
2021/08/05 02:24:22;;;;;;;2.00;1.13;;;;;;;;;;5026442;28;20466;-63
2021/08/05 02:26:49;;;;;;;2.57;1.60;;;;;;;;;;5036721;28;20454;-63
2021/08/05 02:29:17;;;;;;;1.70;1.10;;;;;;;;;;5027019;28;20491;-63
2021/08/05 02:31:43;;;;;;;2.20;1.20;;;;;;;;;;5033148;28;20408;-63
2021/08/05 02:34:09;;;;;;;1.60;1.20;;;;;;;;;;5017466;28;20428;-63
2021/08/05 02:36:36;;;;;;;1.57;0.90;;;;;;;;;;5032467;28;20420;-63
2021/08/05 02:39:03;;;;;;;1.83;1.17;;;;;;;;;;5017356;28;20448;-63
2021/08/05 02:41:29;;;;;;;1.63;1.20;;;;;;;;;;5017550;28;20422;-63
2021/08/05 02:43:56;;;;;;;1.60;1.20;;;;;;;;;;5019773;28;20446;-63
2021/08/05 02:46:23;;;;;;;1.80;1.27;;;;;;;;;;5036634;28;20480;-63
2021/08/05 02:48:49;;;;;;;1.87;1.07;;;;;;;;;;5035177;28;20812;-63
2021/08/05 02:51:15;;;;;;;1.70;1.17;;;;;;;;;;5036912;28;20475;-63
2021/08/05 02:53:41;;;;;;;2.10;1.23;;;;;;;;;;5035371;28;20422;-63
2021/08/05 02:56:11;;;;;;;2.67;1.60;;;;;;;;;;5036940;28;20427;-63
2021/08/05 02:58:37;;;;;;;1.97;1.30;;;;;;;;;;5031942;28;20459;-63
2021/08/05 03:01:04;;;;;;;2.93;1.40;;;;;;;;;;5034575;28;20430;-63
2021/08/05 03:03:30;;;;;;;2.57;1.53;;;;;;;;;;5033747;28;20430;-63
2021/08/05 03:05:57;;;;;;;3.73;1.87;;;;;;;;;;5036293;28;20411;-63
2021/08/05 03:08:23;;;;;;;4.10;1.87;;;;;;;;;;5036624;28;20446;-63
2021/08/05 03:10:49;;;;;;;2.17;1.30;;;;;;;;;;5035495;28;20438;-63
2021/08/05 03:13:15;;;;;;;3.07;2.17;;;;;;;;;;5036432;28;20406;-63
2021/08/05 03:15:41;;;;;;;4.00;1.67;;;;;;;;;;5029518;28;20431;-63
2021/08/05 03:18:08;;;;;;;2.93;1.93;;;;;;;;;;5016880;28;20431;-63
2021/08/05 03:20:34;;;;;;;2.63;1.90;;;;;;;;;;5032758;28;20458;-63
2021/08/05 03:23:00;;;;;;;2.37;1.80;;;;;;;;;;5023879;28;20474;-63
2021/08/05 03:25:26;;;;;;;2.57;1.70;;;;;;;;;;5018388;28;20431;-63
2021/08/05 03:27:52;;;;;;;2.10;1.60;;;;;;;;;;5016481;28;20487;-63
2021/08/05 03:30:18;;;;;;;6.77;2.50;;;;;;;;;;5029902;28;20830;-62
2021/08/05 03:32:44;;;;;;;4.33;2.67;;;;;;;;;;5036431;28;20409;-62
2021/08/05 03:35:11;;;;;;;2.83;2.37;;;;;;;;;;5035267;28;20430;-63
2021/08/05 03:37:37;;;;;;;4.77;3.50;;;;;;;;;;5035782;28;20423;-63
2021/08/05 03:40:03;;;;;;;3.73;3.00;;;;;;;;;;5034928;28;20773;-63
2021/08/05 03:42:29;;;;;;;3.93;3.03;;;;;;;;;;5035967;28;20428;-63
2021/08/05 03:44:55;;;;;;;5.67;3.23;;;;;;;;;;5024755;28;20427;-63
2021/08/05 03:47:21;;;;;;;5.27;2.80;;;;;;;;;;5015846;28;21017;-63
2021/08/05 03:49:47;;;;;;;5.10;2.87;;;;;;;;;;5024239;28;20458;-63
2021/08/05 03:52:14;;;;;;;3.57;2.90;;;;;;;;;;5035790;28;20457;-63
2021/08/05 03:54:40;;;;;;;4.53;3.20;;;;;;;;;;5031676;28;20520;-63
2021/08/05 03:57:06;;;;;;;3.90;2.93;;;;;;;;;;5026770;28;20409;-63
2021/08/05 03:59:32;;;;;;;5.93;4.10;;;;;;;;;;5035009;28;20453;-63
2021/08/05 04:01:58;;;;;;;3.83;3.03;;;;;;;;;;5034295;28;20843;-63
2021/08/05 04:04:24;;;;;;;5.33;3.50;;;;;;;;;;5035119;28;20449;-63
2021/08/05 04:06:50;;;;;;;3.70;2.83;;;;;;;;;;5035757;28;20891;-63
2021/08/05 04:09:16;;;;;;;7.23;3.90;;;;;;;;;;5035041;28;20786;-63
2021/08/05 04:11:42;;;;;;;4.97;3.07;;;;;;;;;;5033222;28;20458;-62
2021/08/05 04:14:08;;;;;;;5.80;4.10;;;;;;;;;;5034675;28;20454;-63
2021/08/05 04:16:35;;;;;;;5.53;3.73;;;;;;;;;;5035454;28;20494;-63
2021/08/05 04:19:01;;;;;;;5.60;4.20;;;;;;;;;;5033564;28;20430;-63
2021/08/05 04:21:27;;;;;;;7.73;4.00;;;;;;;;;;5015593;28;20408;-63
2021/08/05 04:23:53;;;;;;;5.77;4.77;;;;;;;;;;5015114;28;20923;-62
2021/08/05 04:26:19;;;;;;;6.83;4.70;;;;;;;;;;5034002;28;20454;-63
2021/08/05 04:28:45;;;;;;;7.97;4.33;;;;;;;;;;5033368;28;20454;-63
2021/08/05 04:31:11;;;;;;;7.00;4.37;;;;;;;;;;5015767;28;20434;-62
2021/08/05 04:33:37;;;;;;;6.73;4.13;;;;;;;;;;5014942;28;20427;-63
2021/08/05 04:36:03;;;;;;;6.03;4.43;;;;;;;;;;5032434;28;20484;-63
2021/08/05 04:38:29;;;;;;;7.40;4.37;;;;;;;;;;5032857;28;20962;-63
2021/08/05 04:40:55;;;;;;;7.97;4.67;;;;;;;;;;5015774;28;20514;-62
2021/08/05 04:43:21;;;;;;;5.40;3.93;;;;;;;;;;5013851;28;20487;-62
2021/08/05 04:45:47;;;;;;;7.37;4.67;;;;;;;;;;5025823;28;20908;-61
2021/08/05 04:48:13;;;;;;;6.13;4.67;;;;;;;;;;5033218;28;20508;-62
2021/08/05 04:50:42;;;;;;;9.70;4.70;;;;;;;;;;5019663;28;20518;-61
2021/08/05 04:53:09;;;;;;;5.13;4.23;;;;;;;;;;5013605;28;20396;-61
2021/08/05 04:55:35;;;;;;;5.63;4.13;;;;;;;;;;5024865;28;20923;-61
2021/08/05 04:58:03;;;;;;;6.70;4.37;;;;;;;;;;5033161;28;20798;-62
2021/08/05 05:00:30;;;;;;;5.03;3.97;;;;;;;;;;5032341;28;20434;-61
2021/08/05 05:02:56;;;;;;;5.60;3.83;;;;;;;;;;5032282;28;20435;-63
2021/08/05 05:05:23;;;;;;;6.23;3.70;;;;;;;;;;5031046;28;20434;-62
2021/08/05 05:07:49;;;;;;;4.97;4.17;;;;;;;;;;5032771;28;20469;-63
2021/08/05 05:10:16;;;;;;;5.07;3.73;;;;;;;;;;5028151;28;20431;-63
2021/08/05 05:12:43;;;;;;;6.17;4.07;;;;;;;;;;5013240;28;20434;-63
2021/08/05 05:15:09;;;;;;;5.77;3.80;;;;;;;;;;5012888;28;20419;-62
2021/08/05 05:17:36;;;;;;;5.63;3.70;;;;;;;;;;5013062;28;20431;-63
2021/08/05 05:20:03;;;;;;;4.30;3.73;;;;;;;;;;5014512;28;20404;-63
2021/08/05 05:22:29;;;;;;;4.47;3.43;;;;;;;;;;5033149;28;20493;-63
2021/08/05 05:24:55;;;;;;;5.40;3.07;;;;;;;;;;5031736;28;20918;-65
2021/08/05 05:27:21;;;;;;;6.60;3.80;;;;;;;;;;5012833;28;20467;-66
2021/08/05 05:29:47;;;;;;;7.50;3.60;;;;;;;;;;5031457;28;20426;-66
2021/08/05 05:32:13;;;;;;;5.00;3.70;;;;;;;;;;5031669;28;20844;-64
2021/08/05 05:34:39;;;;;;;4.50;3.00;;;;;;;;;;5032791;28;20891;-63
2021/08/05 05:37:06;;;;;;;3.60;3.03;;;;;;;;;;5015022;28;20435;-63
2021/08/05 05:39:32;;;;;;;5.30;3.07;;;;;;;;;;5016747;28;20459;-64
2021/08/05 05:41:58;;;;;;;3.63;2.80;;;;;;;;;;5033645;28;20430;-63
2021/08/05 05:44:24;;;;;;;4.70;3.37;;;;;;;;;;5036593;28;20415;-61
2021/08/05 05:46:50;;;;;;;3.63;2.23;;;;;;;;;;5020177;28;20459;-63
2021/08/05 05:49:16;;;;;;;9.07;2.60;;;;;;;;;;5018589;28;20419;-63
2021/08/05 05:51:42;;;;;;;3.80;3.00;;;;;;;;;;5032478;28;20423;-63
2021/08/05 05:54:08;;;;;;;3.50;2.53;;;;;;;;;;5038383;28;20401;-65
2021/08/05 05:56:34;;;;;;;3.20;2.47;;;;;;;;;;5037692;28;20521;-63
2021/08/05 05:59:00;;;;;;;3.03;2.07;;;;;;;;;;5038333;28;20456;-63
2021/08/05 06:01:27;;;;;;;3.73;2.70;;;;;;;;;;5025852;28;20439;-63
2021/08/05 06:03:53;;;;;;;3.60;2.77;;;;;;;;;;5018125;28;20743;-63
2021/08/05 06:06:19;;;;;;;2.80;2.20;;;;;;;;;;5028014;28;20458;-63
2021/08/05 06:08:45;;;;;;;5.83;2.80;;;;;;;;;;5037938;28;20903;-63
2021/08/05 06:11:11;;;;;;;6.30;2.27;;;;;;;;;;5028702;28;21000;-64
2021/08/05 06:13:37;;;;;;;3.67;2.60;;;;;;;;;;5018876;28;20434;-63
2021/08/05 06:16:03;;;;;;;4.70;2.70;;;;;;;;;;5025670;28;20430;-63
2021/08/05 06:18:29;;;;;;;2.53;2.23;;;;;;;;;;5038707;28;20509;-63
2021/08/05 06:20:55;;;;;;;3.77;3.07;;;;;;;;;;5036568;28;20970;-63
2021/08/05 06:23:21;;;;;;;4.30;2.83;;;;;;;;;;5037889;28;20763;-63
2021/08/05 06:25:47;;;;;;;3.80;2.50;;;;;;;;;;5036660;28;20453;-63
2021/08/05 06:28:13;;;;;;;3.87;2.80;;;;;;;;;;5037928;28;20484;-63
2021/08/05 06:30:39;;;;;;;5.27;2.53;;;;;;;;;;5032976;28;20466;-62
2021/08/05 06:33:05;;;;;;;3.00;2.17;;;;;;;;;;5018153;28;20889;-64
2021/08/05 06:35:31;;;;;;;5.67;3.00;;;;;;;;;;5017506;28;21025;-63
2021/08/05 06:37:57;;;;;;;3.80;2.07;;;;;;;;;;5018047;28;20925;-63
2021/08/05 06:40:23;;;;;;;4.40;2.40;;;;;;;;;;5018761;28;20820;-63
2021/08/05 06:42:49;;;;;;;4.63;2.60;;;;;;;;;;5037623;28;20892;-63
2021/08/05 06:45:15;;;;;;;5.47;2.63;;;;;;;;;;5033766;28;20482;-63
2021/08/05 06:47:44;;;;;;;3.60;2.97;;;;;;;;;;5037025;28;20466;-63
2021/08/05 06:50:11;;;;;;;7.50;3.57;;;;;;;;;;5036417;28;20737;-63
2021/08/05 06:52:37;;;;;;;6.80;2.70;;;;;;;;;;5036229;28;20810;-63
2021/08/05 06:55:03;;;;;;;4.87;2.63;;;;;;;;;;5037223;28;20415;-63
2021/08/05 06:57:29;;;;;;;4.83;3.50;;;;;;;;;;5031161;28;20773;-63
2021/08/05 06:59:55;;;;;;;4.20;3.00;;;;;;;;;;5026022;28;20407;-63
2021/08/05 07:02:21;;;;;;;4.50;2.70;;;;;;;;;;5024841;28;20767;-63
2021/08/05 07:04:47;;;;;;;7.90;3.27;;;;;;;;;;5031186;28;20419;-63
2021/08/05 07:07:13;;;;;;;4.37;2.60;;;;;;;;;;5033186;28;20500;-63
2021/08/05 07:09:39;;;;;;;8.20;3.40;;;;;;;;;;5036029;28;20399;-63
2021/08/05 07:12:06;;;;;;;5.53;3.40;;;;;;;;;;5034731;28;20780;-63
2021/08/05 07:14:32;;;;;;;3.00;1.93;;;;;;;;;;5035487;28;20502;-63
2021/08/05 07:16:58;;;;;;;3.70;2.33;;;;;;;;;;5035014;28;20430;-63
2021/08/05 07:19:25;;;;;;;4.53;3.00;;;;;;;;;;5035113;28;20462;-63
2021/08/05 07:21:52;;;;;;;7.73;2.93;;;;;;;;;;5032444;28;20426;-63
2021/08/05 07:24:18;;;;;;;3.77;2.33;;;;;;;;;;5032434;28;20425;-63
2021/08/05 07:26:44;;;;;;;3.43;2.90;;;;;;;;;;5031746;28;20451;-63
2021/08/05 07:29:10;;;;;;;5.50;2.50;;;;;;;;;;5034302;28;20437;-64
2021/08/05 07:31:37;;;;;;;4.03;2.47;;;;;;;;;;5033982;28;20514;-64
2021/08/05 07:34:05;;;;;;;4.60;2.67;;;;;;;;;;5034872;28;20766;-63
2021/08/05 07:36:31;;;;;;;4.70;2.00;;;;;;;;;;5048666;28;20426;-63
2021/08/05 07:38:57;;;;;;;6.30;2.77;;;;;;;;;;5034812;28;20446;-67
2021/08/05 07:41:23;;;;;;;3.90;2.80;;;;;;;;;;5034585;28;20769;-66
2021/08/05 07:43:49;;;;;;;6.60;2.97;;;;;;;;;;5034379;28;20411;-64
2021/08/05 07:46:15;;;;;;;3.83;2.67;;;;;;;;;;5032599;28;20935;-64
2021/08/05 07:48:41;;;;;;;6.97;3.30;;;;;;;;;;5036569;28;20840;-64
2021/08/05 07:51:07;;;;;;;7.07;2.50;;;;;;;;;;5033684;28;20911;-64
2021/08/05 07:53:34;;;;;;;6.90;3.67;;;;;;;;;;5033105;28;20427;-64
2021/08/05 07:56:00;;;;;;;5.53;2.70;;;;;;;;;;5033891;28;20442;-63
2021/08/05 07:58:26;;;;;;;3.87;2.53;;;;;;;;;;5032495;28;20445;-64
2021/08/05 08:00:52;;;;;;;3.63;2.63;;;;;;;;;;5032942;28;20411;-64
2021/08/05 08:03:18;;;;;;;5.07;2.77;;;;;;;;;;5034437;28;20412;-64
2021/08/05 08:05:45;;;;;;;4.50;2.60;;;;;;;;;;5034291;28;20747;-64
2021/08/05 08:08:11;;;;;;;10.90;3.00;;;;;;;;;;5034441;28;20463;-66
2021/08/05 08:10:37;;;;;;;4.77;2.67;;;;;;;;;;5034493;28;20419;-63
2021/08/05 08:13:05;;;;;;;6.40;2.90;;;;;;;;;;5034431;28;20435;-64
2021/08/05 08:15:31;;;;;;;4.83;3.20;;;;;;;;;;5032566;28;20433;-67
2021/08/05 08:17:57;;;;;;;3.70;2.80;;;;;;;;;;5035805;28;20446;-67
2021/08/05 08:20:23;;;;;;;6.73;3.47;;;;;;;;;;5032949;28;20431;-71
2021/08/05 08:22:49;;;;;;;6.20;3.50;;;;;;;;;;5028788;28;20426;-66
2021/08/05 08:25:16;;;;;;;5.17;4.00;;;;;;;;;;5032410;28;20468;-69
2021/08/05 08:27:43;;;;;;;5.83;3.70;;;;;;;;;;5030224;28;20564;-67
2021/08/05 08:30:10;;;;;;;4.60;3.70;;;;;;;;;;5031268;28;20453;-68
2021/08/05 08:32:36;;;;;;;5.43;3.80;;;;;;;;;;5030520;28;20446;-67
2021/08/05 08:35:04;;;;;;;4.30;3.23;;;;;;;;;;5031446;28;20426;-66
2021/08/05 08:37:30;;;;;;;5.87;3.73;;;;;;;;;;5033009;28;20483;-70
2021/08/05 08:39:56;;;;;;;4.40;3.00;;;;;;;;;;5029599;28;20439;-68
2021/08/05 08:42:22;;;;;;;3.80;2.80;;;;;;;;;;5030487;28;20438;-70
2021/08/05 08:44:48;;;;;;;6.70;3.43;;;;;;;;;;5031796;28;20418;-68
2021/08/05 08:47:15;;;;;;;5.50;3.40;;;;;;;;;;5029725;28;20458;-68
2021/08/05 08:49:44;;;;;;;5.23;3.53;;;;;;;;;;5032595;28;20457;-68
2021/08/05 08:52:12;;;;;;;5.10;3.83;;;;;;;;;;5030149;28;20423;-68
2021/08/05 08:54:43;;;;;;;4.83;3.10;;;;;;;;;;5021415;28;20918;-68
2021/08/05 08:57:10;;;;;;;6.90;4.90;;;;;;;;;;5031045;28;20434;-68
2021/08/05 08:59:36;;;;;;;5.00;3.77;;;;;;;;;;5030082;28;20954;-69
2021/08/05 09:02:02;;;;;;;5.60;3.93;;;;;;;;;;5031864;28;20438;-65
2021/08/05 09:04:28;;;;;;;5.73;3.90;;;;;;;;;;5031879;28;20422;-68
2021/08/05 09:06:56;;;;;;;5.03;3.80;;;;;;;;;;5022867;28;20468;-66
2021/08/05 09:09:22;;;;;;;6.27;4.13;;;;;;;;;;5032287;28;20455;-66
2021/08/05 09:11:48;;;;;;;5.40;4.10;;;;;;;;;;5025312;28;20423;-67
2021/08/05 09:14:34;;;;;;;5.47;3.70;;;;;;;;;;5032143;28;20720;-65
2021/08/05 09:17:15;;;;;;;5.90;4.10;;;;;;;;;;5030913;28;20434;-66
2021/08/05 09:19:41;;;;;;;4.17;3.20;;;;;;;;;;5028256;28;20767;-65
2021/08/05 09:22:07;;;;;;;7.87;3.77;;;;;;;;;;5034270;28;20829;-66
2021/08/05 09:24:33;;;;;;;6.97;3.30;;;;;;;;;;5031294;28;20826;-66
2021/08/05 09:26:59;;;;;;;4.50;3.30;;;;;;;;;;5029913;28;20461;-66
2021/08/05 09:29:26;;;;;;;4.40;3.30;;;;;;;;;;5035561;28;20867;-66
2021/08/05 09:31:55;;;;;;;5.80;3.00;;;;;;;;;;5030289;28;20517;-67
2021/08/05 09:34:21;;;;;;;7.07;3.13;;;;;;;;;;5030848;28;20504;-67
2021/08/05 09:36:49;;;;;;;6.70;3.07;;;;;;;;;;5030642;28;20460;-66
2021/08/05 09:39:16;;;;;;;3.90;2.90;;;;;;;;;;5031595;28;20506;-67
2021/08/05 09:41:55;;;;;;;4.70;3.90;;;;;;;;;;5030376;28;20476;-67
2021/08/05 09:44:21;;;;;;;7.70;3.13;;;;;;;;;;5024989;28;20895;-67
2021/08/05 09:46:47;;;;;;;4.90;3.30;;;;;;;;;;5031050;28;20494;-68
2021/08/05 09:49:17;;;;;;;8.87;3.50;;;;;;;;;;5031758;28;20887;-65
2021/08/05 09:51:43;;;;;;;7.60;3.20;;;;;;;;;;5030996;28;20418;-65
2021/08/05 09:54:09;;;;;;;4.50;3.00;;;;;;;;;;5031463;28;20918;-66
2021/08/05 09:56:37;;;;;;;3.60;2.90;;;;;;;;;;5029728;28;20435;-66
2021/08/05 09:59:21;;;;;;;4.63;2.50;;;;;;;;;;5031548;28;20446;-65
2021/08/05 10:01:57;;;;;;;4.43;3.20;;;;;;;;;;5030424;28;20513;-66
2021/08/05 10:04:25;;;;;;;4.83;3.10;;;;;;;;;;5032164;28;20414;-65
2021/08/05 10:07:03;;;;;;;4.10;3.20;;;;;;;;;;5028805;28;20512;-65
2021/08/05 10:09:29;;;;;;;3.53;2.53;;;;;;;;;;5031320;28;20927;-65
2021/08/05 10:12:08;;;;;;;5.63;3.23;;;;;;;;;;5030030;28;20501;-64
2021/08/05 10:14:34;;;;;;;3.80;2.20;;;;;;;;;;5029079;28;20922;-65
2021/08/05 10:17:01;;;;;;;4.53;2.83;;;;;;;;;;5026440;28;20794;-65
2021/08/05 10:19:28;;;;;;;3.90;2.73;;;;;;;;;;5031391;28;20509;-65
2021/08/05 10:21:55;;;;;;;4.70;2.90;;;;;;;;;;5029500;28;20942;-65
2021/08/05 10:24:22;;;;;;;6.50;3.37;;;;;;;;;;5034073;28;20879;-66
2021/08/05 10:26:48;;;;;;;4.17;3.43;;;;;;;;;;5030979;28;20817;-65
2021/08/05 10:29:16;;;;;;;5.23;2.50;;;;;;;;;;5027459;28;20435;-65
2021/08/05 10:31:43;;;;;;;5.37;3.70;;;;;;;;;;5032531;28;21306;-65
2021/08/05 10:34:10;;;;;;;4.63;2.93;;;;;;;;;;5034120;28;20480;-66
2021/08/05 10:36:38;;;;;;;3.47;2.43;;;;;;;;;;5034044;28;20407;-65
2021/08/05 10:39:04;;;;;;;4.17;2.60;;;;;;;;;;5034027;28;20442;-65
2021/08/05 10:41:33;;;;;;;4.50;2.50;;;;;;;;;;5033007;28;20425;-66
2021/08/05 10:44:02;;;;;;;5.10;2.83;;;;;;;;;;5031909;28;20931;-65
2021/08/05 10:46:33;;;;;;;4.83;3.33;;;;;;;;;;5033047;28;20489;-66
2021/08/05 10:49:06;;;;;;;3.57;2.57;;;;;;;;;;5032627;28;20442;-66
2021/08/05 10:51:36;;;;;;;4.40;3.10;;;;;;;;;;5033305;28;20537;-66
2021/08/05 10:54:02;;;;;;;3.50;2.73;;;;;;;;;;5032630;28;20937;-66
2021/08/05 10:56:33;;;;;;;4.60;2.90;;;;;;;;;;5033946;28;20426;-67
2021/08/05 10:59:25;;;;;;;4.80;3.13;;;;;;;;;;5032310;28;20974;-67
2021/08/05 11:01:53;;;;;;;5.40;2.90;;;;;;;;;;5031607;28;20470;-67
2021/08/05 11:04:41;;;;;;;5.50;3.40;;;;;;;;;;5033660;28;20514;-66
2021/08/05 11:07:22;;;;;;;3.47;2.40;;;;;;;;;;5032077;28;20442;-68
2021/08/05 11:09:48;;;;;;;6.83;3.33;;;;;;;;;;5031213;28;20409;-67
2021/08/05 11:12:33;;;;;;;4.40;2.80;;;;;;;;;;5035544;28;20421;-69
2021/08/05 11:14:59;;;;;;;4.77;4.20;;;;;;;;;;5025765;28;20929;-67
2021/08/05 11:17:25;;;;;;;4.03;2.57;;;;;;;;;;5026613;28;20490;-66
2021/08/05 11:20:11;;;;;;;3.83;2.77;;;;;;;;;;5049999;28;20406;-67
2021/08/05 11:22:41;;;;;;;7.13;3.30;;;;;;;;;;5031840;28;20421;-66
2021/08/05 11:25:07;;;;;;;3.73;2.63;;;;;;;;;;5033395;28;20402;-67
2021/08/05 11:27:33;;;;;;;5.83;3.00;;;;;;;;;;5030281;28;20499;-70
2021/08/05 11:29:59;;;;;;;6.30;4.60;;;;;;;;;;5033338;28;20778;-70
2021/08/05 11:32:25;;;;;;;8.20;2.70;;;;;;;;;;5037154;28;20974;-69
2021/08/05 11:34:54;;;;;;;4.33;2.60;;;;;;;;;;5032757;28;20415;-69
2021/08/05 11:37:21;;;;;;;5.20;2.47;;;;;;;;;;5032940;28;20407;-70
2021/08/05 11:39:51;;;;;;;7.03;2.80;;;;;;;;;;5033028;28;20476;-71
2021/08/05 11:42:19;;;;;;;3.80;2.37;;;;;;;;;;5018423;28;20417;-73
2021/08/05 11:44:45;;;;;;;7.20;2.50;;;;;;;;;;5033385;28;20899;-71
2021/08/05 11:47:11;;;;;;;3.50;2.50;;;;;;;;;;5033624;28;20449;-71
2021/08/05 11:49:37;;;;;;;3.90;2.53;;;;;;;;;;5032572;28;20919;-70
2021/08/05 11:52:28;;;;;;;4.40;2.50;;;;;;;;;;5032715;28;20907;-69
2021/08/05 11:55:09;;;;;;;4.53;2.37;;;;;;;;;;5023243;28;20473;-69
2021/08/05 11:57:59;;;;;;;3.50;2.03;;;;;;;;;;5032469;28;20434;-70
2021/08/05 12:00:35;;;;;;;3.20;2.63;;;;;;;;;;5025573;28;20495;-71
2021/08/05 12:03:04;;;;;;;3.13;2.40;;;;;;;;;;5027688;28;20430;-69
2021/08/05 12:05:36;;;;;;;2.63;2.10;;;;;;;;;;5033151;28;20423;-69
2021/08/05 12:08:02;;;;;;;2.87;2.17;;;;;;;;;;5031932;28;20488;-71
2021/08/05 12:10:29;;;;;;;3.33;2.33;;;;;;;;;;5033343;28;20418;-69
2021/08/05 12:13:00;;;;;;;4.27;2.37;;;;;;;;;;5032375;28;20430;-70
2021/08/05 12:15:26;;;;;;;3.37;1.80;;;;;;;;;;5032874;28;20410;-69
2021/08/05 12:17:53;;;;;;;2.97;1.73;;;;;;;;;;5031500;28;20477;-71
2021/08/05 12:20:21;;;;;;;3.03;2.30;;;;;;;;;;5038903;28;20786;-70
2021/08/05 12:22:50;;;;;;;3.70;2.50;;;;;;;;;;5032771;28;20422;-71
2021/08/05 12:25:24;;;;;;;4.20;2.47;;;;;;;;;;5032116;28;20422;-70
2021/08/05 12:28:10;;;;;;;2.67;1.83;;;;;;;;;;5031372;28;20469;-66
2021/08/05 12:30:56;;;;;;;3.00;2.23;;;;;;;;;;5031170;28;20434;-67
2021/08/05 12:33:33;;;;;;;6.47;4.57;;;;;;;;;;5032144;28;20482;-67
2021/08/05 12:36:03;;;;;;;3.33;2.17;;;;;;;;;;5031777;28;20848;-68
2021/08/05 12:38:29;;;;;;;3.27;2.07;;;;;;;;;;5030159;28;20453;-67
2021/08/05 12:40:56;;;;;;;2.70;1.90;;;;;;;;;;5032458;28;20423;-67
2021/08/05 12:43:24;;;;;;;5.33;1.80;;;;;;;;;;5032223;28;20513;-67
2021/08/05 12:45:50;;;;;;;2.83;1.90;;;;;;;;;;5019147;28;20780;-67
2021/08/05 12:48:17;;;;;;;2.27;1.53;;;;;;;;;;5029125;28;20470;-66
2021/08/05 12:50:45;;;;;;;2.23;1.37;;;;;;;;;;5031725;28;20965;-65
2021/08/05 12:53:24;;;;;;;2.20;1.40;;;;;;;;;;5031369;28;20891;-65
2021/08/05 12:55:51;;;;;;;2.50;1.40;;;;;;;;;;5029313;28;20802;-65
2021/08/05 12:58:21;;;;;;;2.43;1.63;;;;;;;;;;5031828;28;20449;-64
2021/08/05 13:00:48;;;;;;;2.17;1.33;;;;;;;;;;5032854;28;20481;-66
2021/08/05 13:03:14;;;;;;;9.53;2.00;;;;;;;;;;5029890;28;20450;-66
2021/08/05 13:05:53;;;;;;;2.40;1.40;;;;;;;;;;5030349;28;20426;-64
2021/08/05 13:08:33;;;;;;;3.80;1.47;;;;;;;;;;5031178;28;20461;-64
2021/08/05 13:11:00;;;;;;;2.83;1.70;;;;;;;;;;5031165;28;20466;-67
2021/08/05 13:13:45;;;;;;;3.20;1.60;;;;;;;;;;5031478;28;20482;-66
2021/08/05 13:16:28;;;;;;;3.00;1.10;;;;;;;;;;5031501;28;20428;-64
2021/08/05 13:19:03;;;;;;;2.40;1.47;;;;;;;;;;5031330;28;20512;-63
2021/08/05 13:21:30;;;;;;;2.07;1.40;;;;;;;;;;5031975;28;20899;-66
2021/08/05 13:23:56;;;;;;;3.60;1.10;;;;;;;;;;5028988;28;20426;-65
2021/08/05 13:26:32;;;;;;;2.93;1.30;;;;;;;;;;5031741;28;20414;-65
2021/08/05 13:28:58;;;;;;;2.47;1.47;;;;;;;;;;5030939;28;20454;-65
2021/08/05 13:31:24;;;;;;;2.50;1.50;;;;;;;;;;5029654;28;20504;-65
2021/08/05 13:34:12;;;;;;;3.33;1.43;;;;;;;;;;5023945;28;20422;-64
2021/08/05 13:36:39;;;;;;;1.93;1.33;;;;;;;;;;5028047;28;20426;-63
2021/08/05 13:39:08;;;;;;;1.93;1.10;;;;;;;;;;5031230;28;20529;-65
2021/08/05 13:41:34;;;;;;;2.27;1.47;;;;;;;;;;5029103;28;20422;-66
2021/08/05 13:44:01;;;;;;;1.70;1.23;;;;;;;;;;5029007;28;20434;-67
2021/08/05 13:46:27;;;;;;;1.80;1.10;;;;;;;;;;5028619;28;20438;-62
2021/08/05 13:48:56;;;;;;;1.80;1.00;;;;;;;;;;5028953;28;20454;-65
2021/08/05 13:51:23;;;;;;;2.10;1.20;;;;;;;;;;5031945;28;20421;-65
2021/08/05 13:53:49;;;;;;;2.60;1.20;;;;;;;;;;5030398;28;20862;-67
2021/08/05 13:56:16;;;;;;;1.93;1.07;;;;;;;;;;5032306;28;20787;-66
2021/08/05 13:58:42;;;;;;;2.60;1.20;;;;;;;;;;5032002;28;20500;-65
2021/08/05 14:01:09;;;;;;;2.00;1.00;;;;;;;;;;5036801;28;20460;-64
2021/08/05 14:03:36;;;;;;;1.77;1.00;;;;;;;;;;5032914;28;20528;-66
2021/08/05 14:06:02;;;;;;;2.43;1.20;;;;;;;;;;5035776;28;20464;-66
2021/08/05 14:08:28;;;;;;;4.90;1.13;;;;;;;;;;5034658;28;20773;-64
2021/08/05 14:10:54;;;;;;;1.90;1.03;;;;;;;;;;5035315;28;20414;-66
2021/08/05 14:13:20;;;;;;;2.10;1.43;;;;;;;;;;5034505;28;20918;-64
2021/08/05 14:15:47;;;;;;;2.00;1.10;;;;;;;;;;5035048;28;20427;-64
2021/08/05 14:18:13;;;;;;;2.00;1.30;;;;;;;;;;5032045;28;20535;-65
2021/08/05 14:20:42;;;;;;;2.17;1.20;;;;;;;;;;5030072;28;20816;-63
2021/08/05 14:23:09;;;;;;;1.80;1.20;;;;;;;;;;5035171;28;20937;-68
2021/08/05 14:25:35;;;;;;;2.73;0.93;;;;;;;;;;5032481;28;20418;-70
2021/08/05 14:28:01;;;;;;;2.20;1.30;;;;;;;;;;5034186;28;20540;-65
2021/08/05 14:30:27;;;;;;;2.67;0.93;;;;;;;;;;5034131;28;20500;-64
2021/08/05 14:32:53;;;;;;;2.10;1.23;;;;;;;;;;5034747;28;20423;-63
2021/08/05 14:35:19;;;;;;;2.97;0.97;;;;;;;;;;5033623;28;20476;-63
2021/08/05 14:37:45;;;;;;;2.43;1.10;;;;;;;;;;5034822;28;20503;-64
2021/08/05 14:40:12;;;;;;;2.13;1.10;;;;;;;;;;5033133;28;20430;-64
2021/08/05 14:42:38;;;;;;;4.77;1.20;;;;;;;;;;5034396;28;20951;-65
2021/08/05 14:45:05;;;;;;;2.00;1.10;;;;;;;;;;5032206;28;20848;-64
2021/08/05 14:47:31;;;;;;;3.60;2.13;;;;;;;;;;5034792;28;20461;-64